Time;durP1;ratioP1;P1;durP2;ratioP2;P2;SDS_P1;SDS_P2;PMS_P1;PMS_P2;Temp;Humidity;BMP_temperature;BMP_pressure;BME280_temperature;BME280_humidity;BME280_pressure;Samples;Min_cycle;Max_cycle;Signal;HPM_P1;HPM_P2
2021/07/21 00:01:36;;;;;;;16.48;10.55;;;14.30;99.90;;;;;;4954770;29;20055;-91
2021/07/21 00:04:55;;;;;;;;;;;;;;;;;;;;;
2021/07/21 00:08:14;;;;;;;;;;;;;;;;;;;;;
2021/07/21 00:15:23;;;;;;;18.17;9.07;;;14.00;99.90;;;;;;4785428;29;20062;-90
2021/07/21 00:22:54;;;;;;;;;;;;;;;;;;;;;
2021/07/21 00:26:02;;;;;;;;;;;;;;;;;;;;;
2021/07/21 00:29:04;;;;;;;13.10;8.93;;;14.00;99.90;;;;;;4822384;29;20050;-94
2021/07/21 00:32:04;;;;;;;18.55;9.90;;;14.10;99.90;;;;;;4834681;29;20181;-93
2021/07/21 00:38:44;;;;;;;15.38;9.32;;;14.10;99.90;;;;;;4896386;29;20044;-92
2021/07/21 00:42:20;;;;;;;17.85;9.15;;;14.10;99.90;;;;;;4870779;29;20371;-90
2021/07/21 00:45:47;;;;;;;;;;;;;;;;;;;;;
2021/07/21 00:48:58;;;;;;;15.57;9.88;;;14.00;99.90;;;;;;4852688;29;20229;-91
2021/07/21 00:52:19;;;;;;;14.15;9.48;;;14.00;99.90;;;;;;4841040;29;20045;-94
2021/07/21 00:56:30;;;;;;;15.88;10.55;;;13.90;99.90;;;;;;4835338;29;20046;-92
2021/07/21 01:00:18;;;;;;;21.42;9.32;;;13.80;99.90;;;;;;4877133;29;20225;-91
2021/07/21 01:04:09;;;;;;;;;;;;;;;;;;;;;
2021/07/21 01:08:12;;;;;;;;;;;;;;;;;;;;;
2021/07/21 01:11:35;;;;;;;16.85;10.07;;;13.80;99.90;;;;;;4914983;29;20059;-91
2021/07/21 01:15:00;;;;;;;;;;;;;;;;;;;;;
2021/07/21 01:19:02;;;;;;;;;;;;;;;;;;;;;
2021/07/21 01:22:49;;;;;;;15.68;9.63;;;13.60;99.90;;;;;;4856029;29;20058;-92
2021/07/21 01:26:12;;;;;;;18.63;9.85;;;13.60;99.90;;;;;;4849079;29;20214;-93
2021/07/21 01:29:13;;;;;;;15.48;9.43;;;13.70;99.90;;;;;;4860832;29;20049;-91
2021/07/21 01:32:55;;;;;;;13.65;9.10;;;13.80;99.90;;;;;;4869628;29;20053;-91
2021/07/21 01:35:56;;;;;;;19.10;10.27;;;14.00;99.90;;;;;;4914594;29;20159;-90
2021/07/21 01:39:31;;;;;;;12.32;8.60;;;14.10;99.90;;;;;;4952583;29;20154;-91
2021/07/21 01:42:31;;;;;;;14.82;9.80;;;14.10;99.90;;;;;;4955057;28;20127;-94
2021/07/21 01:45:21;;;;;;;15.30;10.05;;;14.10;99.90;;;;;;4960289;29;20053;-90
2021/07/21 01:48:38;;;;;;;16.95;9.82;;;14.00;99.90;;;;;;4946850;29;20120;-90
2021/07/21 01:52:01;;;;;;;17.95;9.85;;;14.10;99.90;;;;;;4950912;28;20078;-92
2021/07/21 02:02:42;;;;;;;14.73;9.65;;;14.20;99.90;;;;;;4770102;30;20172;-93
2021/07/21 02:06:17;;;;;;;;;;;;;;;;;;;;;
2021/07/21 02:09:45;;;;;;;16.10;10.18;;;14.20;99.90;;;;;;4764624;30;20082;-91
2021/07/21 02:12:57;;;;;;;15.25;9.45;;;14.20;99.90;;;;;;4766667;30;20334;-90
2021/07/21 02:16:01;;;;;;;;;;;;;;;;;;;;;
2021/07/21 02:19:19;;;;;;;20.50;11.20;;;14.10;99.90;;;;;;4776068;29;20117;-90
2021/07/21 02:22:36;;;;;;;;;;;;;;;;;;;;;
2021/07/21 02:25:28;;;;;;;15.63;9.82;;;14.10;99.90;;;;;;4834907;29;21511;-92
2021/07/21 02:28:36;;;;;;;18.90;10.03;;;14.10;99.90;;;;;;4853628;29;20061;-91
2021/07/21 02:31:59;;;;;;;18.73;11.25;;;14.00;99.90;;;;;;4853951;29;20046;-90
2021/07/21 02:35:18;;;;;;;;;;;;;;;;;;;;;
2021/07/21 02:38:31;;;;;;;16.25;11.23;;;14.00;99.90;;;;;;4956229;28;20121;-95
2021/07/21 02:42:19;;;;;;;16.33;11.27;;;13.90;99.90;;;;;;4948733;29;20555;-93
2021/07/21 02:53:01;;;;;;;22.27;12.50;;;13.80;99.90;;;;;;4957139;28;19930;-92
2021/07/21 02:56:19;;;;;;;17.45;12.27;;;13.70;99.90;;;;;;4947302;28;20068;-92
2021/07/21 02:59:19;;;;;;;17.23;12.38;;;13.60;99.90;;;;;;4961886;28;20043;-93
2021/07/21 03:14:20;;;;;;;20.33;12.30;;;13.40;99.90;;;;;;4839041;29;20129;-93
2021/07/21 03:18:20;;;;;;;;;;;;;;;;;;;;;
2021/07/21 03:21:56;;;;;;;;;;;;;;;;;;;;;
2021/07/21 03:28:54;;;;;;;;;;;;;;;;;;;;;
2021/07/21 03:32:46;;;;;;;;;;;;;;;;;;;;;
2021/07/21 03:44:21;;;;;;;;;;;;;;;;;;;;;
2021/07/21 03:51:40;;;;;;;;;;;;;;;;;;;;;
2021/07/21 04:51:53;;;;;;;20.52;13.93;;;13.10;99.90;;;;;;6222396;23;20443;-91
2021/07/21 04:54:44;;;;;;;24.00;13.63;;;13.20;99.90;;;;;;6222656;23;20446;-89
2021/07/21 04:57:31;;;;;;;23.83;14.52;;;13.20;99.90;;;;;;6236247;23;20008;-89
2021/07/21 05:00:21;;;;;;;19.88;13.73;;;13.30;99.90;;;;;;6222733;23;20544;-91
2021/07/21 05:03:10;;;;;;;23.30;14.30;;;13.30;99.90;;;;;;6226184;23;20025;-88
2021/07/21 05:05:57;;;;;;;23.45;13.50;;;13.30;99.90;;;;;;6202910;23;20335;-89
2021/07/21 05:08:47;;;;;;;24.67;14.27;;;13.40;99.90;;;;;;6224322;23;20491;-89
2021/07/21 05:11:35;;;;;;;22.88;13.50;;;13.50;99.90;;;;;;6227470;23;20028;-89
2021/07/21 05:14:22;;;;;;;24.30;13.82;;;13.60;99.90;;;;;;6224006;23;20029;-91
2021/07/21 05:17:10;;;;;;;26.13;13.98;;;13.70;99.90;;;;;;6225169;23;20328;-89
2021/07/21 05:19:57;;;;;;;18.30;13.15;;;13.80;99.90;;;;;;6223710;23;20047;-90
2021/07/21 05:22:46;;;;;;;21.88;14.13;;;13.80;99.90;;;;;;6222707;23;20058;-90
2021/07/21 05:25:35;;;;;;;21.10;13.02;;;13.90;99.90;;;;;;6221120;23;20130;-90
2021/07/21 05:28:28;;;;;;;20.17;13.27;;;14.00;99.90;;;;;;6217023;23;20062;-90
2021/07/21 05:31:18;;;;;;;21.48;12.40;;;14.10;99.90;;;;;;6221716;23;20078;-93
2021/07/21 05:34:29;;;;;;;21.27;12.02;;;14.20;99.90;;;;;;6115631;23;20204;-91
2021/07/21 05:37:25;;;;;;;19.80;12.00;;;14.40;99.90;;;;;;6113772;23;20022;-93
2021/07/21 05:44:54;;;;;;;20.52;12.43;;;14.70;99.90;;;;;;6132249;23;20022;-94
2021/07/21 05:51:12;;;;;;;20.65;12.40;;;15.00;99.90;;;;;;6128636;23;20021;-92
2021/07/21 05:54:07;;;;;;;20.02;11.88;;;15.20;99.90;;;;;;6219807;23;20029;-89
2021/07/21 05:56:58;;;;;;;19.00;12.20;;;15.20;99.90;;;;;;6219309;23;20099;-92
2021/07/21 05:59:45;;;;;;;22.10;12.57;;;15.30;99.90;;;;;;6214945;23;20082;-92
2021/07/21 06:02:35;;;;;;;21.98;12.05;;;15.40;99.90;;;;;;6217623;23;20035;-91
2021/07/21 06:05:58;;;;;;;24.75;12.40;;;15.60;99.90;;;;;;6217932;23;20024;-93
2021/07/21 06:08:48;;;;;;;19.98;12.55;;;15.80;99.90;;;;;;6219544;23;20021;-91
2021/07/21 06:11:38;;;;;;;19.30;12.15;;;16.10;99.90;;;;;;6215702;23;20087;-90
2021/07/21 06:14:26;;;;;;;20.67;12.10;;;16.20;99.90;;;;;;6218413;23;20024;-93
2021/07/21 06:17:24;;;;;;;20.75;12.38;;;16.40;99.90;;;;;;6199944;23;20072;-93
2021/07/21 06:20:13;;;;;;;18.80;12.40;;;16.60;99.90;;;;;;6230702;23;20020;-92
2021/07/21 06:23:21;;;;;;;20.95;12.75;;;16.80;99.90;;;;;;6228773;23;20028;-89
2021/07/21 06:26:08;;;;;;;19.08;11.38;;;16.70;99.90;;;;;;6225044;23;20029;-91
2021/07/21 06:28:55;;;;;;;17.55;11.73;;;16.90;99.90;;;;;;6225704;23;20108;-91
2021/07/21 06:31:42;;;;;;;15.98;11.45;;;17.20;99.90;;;;;;6230180;23;20024;-92
2021/07/21 06:34:31;;;;;;;19.73;11.80;;;17.40;99.90;;;;;;6228432;23;20416;-92
2021/07/21 06:37:22;;;;;;;19.63;11.95;;;17.50;99.90;;;;;;6228385;23;20085;-92
2021/07/21 06:40:14;;;;;;;18.63;11.23;;;17.90;99.90;;;;;;6230023;23;20420;-91
2021/07/21 06:43:03;;;;;;;17.90;11.70;;;18.30;99.90;;;;;;6228422;23;20094;-93
2021/07/21 06:45:53;;;;;;;19.23;11.83;;;18.80;99.90;;;;;;6231655;23;20025;-92
2021/07/21 06:48:40;;;;;;;16.05;10.85;;;19.20;99.90;;;;;;6227330;23;20563;-92
2021/07/21 06:52:32;;;;;;;19.80;11.52;;;19.40;99.90;;;;;;6225107;23;20095;-94
2021/07/21 06:55:20;;;;;;;18.10;11.38;;;19.70;99.90;;;;;;6216653;23;20025;-90
2021/07/21 06:58:08;;;;;;;17.95;11.88;;;19.80;99.90;;;;;;6219837;23;20025;-89
2021/07/21 07:00:57;;;;;;;17.65;10.48;;;19.60;99.90;;;;;;6218691;23;20416;-91
2021/07/21 07:03:47;;;;;;;18.75;10.60;;;20.00;99.90;;;;;;6221833;23;20021;-92
2021/07/21 07:08:08;;;;;;;17.38;10.57;;;20.30;99.90;;;;;;6229463;23;20034;-93
2021/07/21 07:10:37;;;;;;;15.52;10.63;;;20.80;99.90;;;;;;6220552;23;20423;-92
2021/07/21 07:17:28;;;;;;;12.38;9.30;;;21.70;99.90;;;;;;6156762;23;20119;-92
2021/07/21 07:20:53;;;;;;;19.88;10.45;;;22.10;99.90;;;;;;6160005;23;20036;-93
2021/07/21 07:23:40;;;;;;;15.35;9.52;;;22.40;99.80;;;;;;6155136;23;20437;-94
2021/07/21 07:26:35;;;;;;;16.20;10.25;;;22.50;98.60;;;;;;6136433;23;20044;-90
2021/07/21 07:29:22;;;;;;;;;;;22.50;98.50;;;;;;6157143;23;20121;-90
2021/07/21 07:32:12;;;;;;;15.43;9.63;;;22.80;97.30;;;;;;6134484;23;20018;-93
2021/07/21 07:35:05;;;;;;;12.02;9.35;;;23.20;97.40;;;;;;6156204;23;20029;-92
2021/07/21 07:37:53;;;;;;;12.48;8.70;;;23.90;91.80;;;;;;6153978;23;20112;-92
2021/07/21 07:40:42;;;;;;;12.00;8.57;;;24.20;92.90;;;;;;6156002;23;20049;-93
2021/07/21 07:43:33;;;;;;;14.27;9.60;;;24.70;90.90;;;;;;6135355;23;20029;-93
2021/07/21 07:46:31;;;;;;;14.27;9.13;;;24.60;90.20;;;;;;6153730;23;20090;-93
2021/07/21 07:49:28;;;;;;;11.07;8.65;;;24.50;84.20;;;;;;6136806;23;20238;-92
2021/07/21 07:52:16;;;;;;;16.80;9.15;;;24.70;85.20;;;;;;6153809;23;20025;-91
2021/07/21 07:55:06;;;;;;;14.20;8.75;;;25.00;87.90;;;;;;6198866;23;20047;-92
2021/07/21 07:57:56;;;;;;;13.45;8.73;;;25.20;79.50;;;;;;6215478;23;20346;-93
2021/07/21 08:00:44;;;;;;;11.82;8.32;;;25.60;81.70;;;;;;6219841;22;20086;-92
2021/07/21 08:03:34;;;;;;;12.85;8.55;;;25.60;82.50;;;;;;6218823;23;20024;-90
2021/07/21 08:06:22;;;;;;;12.25;8.35;;;25.70;73.40;;;;;;6216749;23;20029;-92
2021/07/21 08:09:12;;;;;;;14.63;8.63;;;25.40;73.30;;;;;;6215653;23;20459;-90
2021/07/21 08:12:03;;;;;;;14.60;9.43;;;25.20;74.90;;;;;;6218633;23;20094;-90
2021/07/21 08:14:51;;;;;;;11.32;8.50;;;25.30;74.10;;;;;;6214919;23;20087;-90
2021/07/21 08:17:39;;;;;;;18.48;8.48;;;25.70;74.90;;;;;;6215180;23;20021;-91
2021/07/21 08:20:29;;;;;;;13.15;8.70;;;26.30;73.60;;;;;;6217957;23;20048;-91
2021/07/21 08:23:18;;;;;;;12.63;8.43;;;26.40;69.50;;;;;;6218391;23;20044;-90
2021/07/21 08:26:06;;;;;;;13.27;8.77;;;26.20;71.10;;;;;;6217793;23;20108;-90
2021/07/21 08:28:55;;;;;;;11.82;8.85;;;26.20;69.90;;;;;;6215514;23;20032;-92
2021/07/21 08:31:48;;;;;;;11.70;7.95;;;26.20;68.70;;;;;;6220021;23;20112;-93
2021/07/21 08:34:43;;;;;;;12.23;8.48;;;26.50;71.50;;;;;;6218521;23;20028;-92
2021/07/21 08:37:30;;;;;;;11.20;8.65;;;26.60;67.40;;;;;;6216630;23;20135;-92
2021/07/21 08:40:23;;;;;;;12.63;8.90;;;26.70;69.70;;;;;;6216219;23;20024;-89
2021/07/21 08:43:10;;;;;;;10.43;8.45;;;26.40;67.80;;;;;;6216673;23;20033;-92
2021/07/21 08:45:58;;;;;;;14.07;8.35;;;26.90;63.30;;;;;;6214481;23;20028;-91
2021/07/21 08:48:50;;;;;;;14.50;8.63;;;27.10;64.60;;;;;;6215829;23;20032;-91
2021/07/21 08:51:41;;;;;;;13.85;9.15;;;27.20;64.20;;;;;;6218415;23;20080;-92
2021/07/21 08:54:32;;;;;;;13.30;8.80;;;27.10;62.50;;;;;;6228007;23;20025;-92
2021/07/21 08:57:19;;;;;;;12.27;8.52;;;26.90;60.40;;;;;;6229902;23;20020;-92
2021/07/21 09:00:11;;;;;;;11.18;8.82;;;26.60;62.60;;;;;;6227144;22;20024;-93
2021/07/21 09:03:01;;;;;;;17.48;8.90;;;26.70;61.70;;;;;;6223137;23;20024;-90
2021/07/21 09:05:50;;;;;;;13.27;9.02;;;26.80;62.50;;;;;;6225920;23;20040;-91
2021/07/21 09:08:40;;;;;;;13.38;8.57;;;26.90;61.50;;;;;;6231207;23;20041;-93
2021/07/21 09:11:29;;;;;;;16.23;8.52;;;27.30;63.30;;;;;;6227490;23;20036;-90
2021/07/21 09:14:17;;;;;;;13.48;8.63;;;28.20;60.90;;;;;;6221559;23;20028;-93
2021/07/21 09:17:09;;;;;;;15.48;8.30;;;28.70;58.50;;;;;;6215792;23;20052;-93
2021/07/21 09:20:16;;;;;;;15.15;8.20;;;28.80;58.40;;;;;;6228864;23;20020;-91
2021/07/21 09:23:04;;;;;;;13.90;8.55;;;29.00;56.80;;;;;;6230105;23;20021;-92
2021/07/21 09:25:51;;;;;;;17.83;8.65;;;29.30;56.20;;;;;;6229800;23;20027;-91
2021/07/21 09:28:44;;;;;;;14.70;9.18;;;29.60;54.60;;;;;;6228237;23;20024;-91
2021/07/21 09:31:48;;;;;;;13.23;8.43;;;29.50;55.10;;;;;;6232893;23;20025;-91
2021/07/21 09:34:38;;;;;;;13.65;9.02;;;29.70;55.40;;;;;;6230437;23;20032;-93
2021/07/21 09:37:38;;;;;;;12.57;7.82;;;30.20;52.80;;;;;;6230499;23;20024;-93
2021/07/21 09:41:22;;;;;;;12.00;8.10;;;30.50;55.20;;;;;;6213978;23;20071;-91
2021/07/21 09:44:40;;;;;;;17.13;8.25;;;30.80;53.20;;;;;;6117436;23;20060;-93
2021/07/21 09:47:29;;;;;;;11.35;8.30;;;30.80;53.20;;;;;;6139877;23;20050;-92
2021/07/21 09:50:47;;;;;;;12.90;8.38;;;30.80;52.00;;;;;;6123948;23;20026;-93
2021/07/21 09:53:51;;;;;;;14.07;8.95;;;31.30;54.30;;;;;;6120060;23;20029;-92
2021/07/21 09:56:39;;;;;;;11.18;8.57;;;31.30;52.90;;;;;;6123306;23;20114;-94
2021/07/21 09:59:47;;;;;;;11.05;8.27;;;31.20;50.50;;;;;;6117506;23;20028;-91
2021/07/21 10:06:32;;;;;;;9.23;7.70;;;30.90;49.90;;;;;;6170615;23;20033;-93
2021/07/21 10:09:24;;;;;;;9.40;7.55;;;31.30;48.30;;;;;;6165291;23;20052;-93
2021/07/21 10:13:13;;;;;;;;;;;;;;;;;;;;;
2021/07/21 10:16:40;;;;;;;8.95;7.20;;;31.90;45.80;;;;;;6168220;23;20021;-92
2021/07/21 10:19:36;;;;;;;10.30;7.63;;;32.20;47.60;;;;;;6235584;23;20028;-93
2021/07/21 10:22:26;;;;;;;12.45;8.45;;;31.90;48.70;;;;;;6207367;23;20032;-92
2021/07/21 10:25:30;;;;;;;14.15;7.30;;;32.10;45.30;;;;;;6150328;22;21354;-89
2021/07/21 10:32:18;;;;;;;9.18;7.90;;;32.90;44.60;;;;;;6084605;23;20117;-92
2021/07/21 10:35:07;;;;;;;15.55;8.40;;;32.90;46.10;;;;;;6154743;23;20115;-92
2021/07/21 10:38:09;;;;;;;10.43;8.50;;;33.00;46.40;;;;;;6198788;23;20066;-91
2021/07/21 10:43:36;;;;;;;13.55;8.15;;;33.00;45.80;;;;;;6233190;23;20021;-91
2021/07/21 10:47:28;;;;;;;;;;;;;;;;;;;;;
2021/07/21 10:50:38;;;;;;;12.25;8.00;;;32.40;46.30;;;;;;6157015;23;20445;-92
2021/07/21 10:59:44;;;;;;;12.25;8.48;;;33.70;46.40;;;;;;6217703;22;20416;-91
2021/07/21 11:03:15;;;;;;;13.70;8.90;;;33.50;45.50;;;;;;6225667;23;20039;-94
2021/07/21 11:10:43;;;;;;;10.23;8.60;;;33.30;44.80;;;;;;6201155;23;20090;-94
2021/07/21 11:13:37;;;;;;;11.05;8.60;;;34.20;44.90;;;;;;6215529;23;20036;-94
2021/07/21 11:16:48;;;;;;;10.70;8.23;;;34.70;42.10;;;;;;6217708;23;20404;-92
2021/07/21 11:20:15;;;;;;;10.05;7.65;;;35.00;41.90;;;;;;6222797;23;20439;-92
2021/07/21 11:27:43;;;;;;;11.00;8.93;;;35.50;42.10;;;;;;6075914;23;20079;-90
2021/07/21 11:30:49;;;;;;;9.32;7.85;;;36.10;42.40;;;;;;6048669;23;20027;-91
2021/07/21 11:33:50;;;;;;;10.88;8.70;;;35.60;40.90;;;;;;6046860;23;20034;-90
2021/07/21 11:36:46;;;;;;;11.23;8.48;;;35.00;41.30;;;;;;6044763;23;20098;-91
2021/07/21 11:39:46;;;;;;;12.43;9.25;;;34.70;43.30;;;;;;6187120;23;20147;-90
2021/07/21 11:42:34;;;;;;;12.63;9.32;;;34.70;40.70;;;;;;6182798;23;20036;-89
2021/07/21 11:45:24;;;;;;;13.38;8.65;;;33.40;42.60;;;;;;6184465;23;20029;-91
2021/07/21 11:48:12;;;;;;;13.55;9.73;;;33.50;42.50;;;;;;6184159;23;20499;-89
2021/07/21 11:51:00;;;;;;;12.35;9.70;;;33.70;42.70;;;;;;6183518;23;20028;-90
2021/07/21 11:53:47;;;;;;;12.38;9.38;;;34.10;43.80;;;;;;6183911;23;20068;-90
2021/07/21 11:56:35;;;;;;;14.02;10.40;;;34.70;41.50;;;;;;6185774;23;20110;-90
2021/07/21 11:59:30;;;;;;;14.35;9.73;;;34.80;40.50;;;;;;6186069;23;20055;-91
2021/07/21 12:02:18;;;;;;;13.55;9.57;;;34.80;41.30;;;;;;6187586;23;20054;-92
2021/07/21 12:05:08;;;;;;;12.00;9.38;;;34.90;40.50;;;;;;6197711;23;20031;-91
2021/07/21 12:08:04;;;;;;;12.20;9.27;;;34.20;42.30;;;;;;6181087;23;20060;-91
2021/07/21 12:10:57;;;;;;;15.15;9.68;;;33.90;43.10;;;;;;6194028;23;20025;-92
2021/07/21 12:13:44;;;;;;;13.32;10.60;;;34.40;42.90;;;;;;6187157;23;20080;-92
2021/07/21 12:16:36;;;;;;;14.52;9.57;;;34.40;42.70;;;;;;6186475;23;20096;-90
2021/07/21 12:19:25;;;;;;;12.15;9.32;;;34.70;42.20;;;;;;6182499;23;20172;-91
2021/07/21 12:22:19;;;;;;;13.07;9.88;;;35.30;43.90;;;;;;6182486;23;20304;-90
2021/07/21 12:25:10;;;;;;;11.85;8.75;;;35.20;40.80;;;;;;6183752;23;20048;-91
2021/07/21 12:28:00;;;;;;;12.82;8.77;;;35.50;42.80;;;;;;6189620;23;20028;-91
2021/07/21 12:31:10;;;;;;;;;;;;;;;;;;;;;
2021/07/21 12:37:36;;;;;;;13.07;9.52;;;35.60;38.00;;;;;;6185239;23;20076;-92
2021/07/21 12:40:35;;;;;;;14.15;9.95;;;33.10;42.60;;;;;;6187323;23;20048;-90
2021/07/21 12:43:29;;;;;;;12.35;10.38;;;30.90;46.90;;;;;;6189743;23;20120;-92
2021/07/21 12:46:17;;;;;;;12.07;10.77;;;29.70;47.30;;;;;;6167268;23;20036;-92
2021/07/21 12:49:05;;;;;;;12.15;10.10;;;30.00;50.50;;;;;;6186744;23;20021;-89
2021/07/21 12:51:54;;;;;;;12.55;9.45;;;31.20;47.60;;;;;;6191869;23;20079;-91
2021/07/21 12:54:52;;;;;;;16.08;10.32;;;32.70;45.80;;;;;;6188478;23;20024;-93
2021/07/21 12:57:53;;;;;;;12.85;9.18;;;33.30;43.50;;;;;;6198111;23;20135;-92
2021/07/21 13:00:47;;;;;;;13.37;9.33;;;34.40;43.40;;;;;;6187942;23;20021;-92
2021/07/21 13:03:49;;;;;;;12.00;9.80;;;35.00;43.10;;;;;;6188754;23;20360;-91
2021/07/21 13:06:39;;;;;;;13.07;9.45;;;34.50;40.60;;;;;;6193268;23;20025;-90
2021/07/21 13:09:27;;;;;;;14.98;10.20;;;33.50;41.40;;;;;;6184949;23;20025;-90
2021/07/21 13:12:16;;;;;;;10.98;9.77;;;33.90;44.40;;;;;;6186137;23;20029;-90
2021/07/21 13:15:04;;;;;;;10.38;9.23;;;34.70;43.40;;;;;;6186880;23;20025;-90
2021/07/21 13:18:06;;;;;;;10.35;9.07;;;35.20;40.70;;;;;;6166229;23;20032;-89
2021/07/21 13:20:57;;;;;;;12.45;9.40;;;35.30;40.60;;;;;;6189366;23;20032;-91
2021/07/21 13:23:45;;;;;;;13.88;9.55;;;34.40;39.80;;;;;;6185587;23;20021;-91
2021/07/21 13:26:37;;;;;;;13.38;9.93;;;32.90;41.60;;;;;;6187175;23;20451;-93
2021/07/21 13:29:29;;;;;;;;;;;32.20;44.90;;;;;;6188931;23;20103;-91
2021/07/21 13:32:25;;;;;;;11.95;8.95;;;33.30;44.70;;;;;;6185359;23;19923;-90
2021/07/21 13:35:15;;;;;;;10.73;8.98;;;34.50;43.50;;;;;;6188894;23;20091;-92
2021/07/21 13:38:05;;;;;;;10.73;8.88;;;35.50;40.20;;;;;;6186462;23;20436;-92
2021/07/21 13:41:25;;;;;;;13.35;8.98;;;35.30;38.40;;;;;;6185410;23;20032;-92
2021/07/21 13:44:21;;;;;;;10.05;8.60;;;35.40;39.30;;;;;;6189517;23;20120;-93
2021/07/21 13:47:13;;;;;;;13.05;8.35;;;35.50;38.80;;;;;;6188826;23;20021;-92
2021/07/21 13:50:28;;;;;;;13.75;8.95;;;35.70;41.40;;;;;;6184734;23;20092;-90
2021/07/21 13:53:27;;;;;;;19.45;9.48;;;35.90;40.70;;;;;;6185259;23;20042;-91
2021/07/21 13:56:16;;;;;;;14.32;9.77;;;34.80;40.20;;;;;;6185667;23;20155;-92
2021/07/21 13:59:04;;;;;;;13.43;9.38;;;34.30;40.60;;;;;;6169802;23;20032;-89
2021/07/21 14:02:06;;;;;;;;;;;34.10;42.00;;;;;;6189033;23;20025;-91
2021/07/21 14:05:25;;;;;;;14.90;8.63;;;34.40;41.00;;;;;;6195963;23;19926;-88
2021/07/21 14:08:15;;;;;;;11.85;8.70;;;34.60;42.00;;;;;;6196526;23;20372;-90
2021/07/21 14:11:06;;;;;;;11.38;8.80;;;35.10;41.50;;;;;;6193036;23;20035;-93
2021/07/21 14:13:56;;;;;;;10.48;8.20;;;35.10;41.80;;;;;;6189365;23;20034;-91
2021/07/21 14:16:48;;;;;;;12.38;8.90;;;35.30;39.50;;;;;;6186899;23;20040;-92
2021/07/21 14:19:36;;;;;;;13.35;8.80;;;33.90;40.30;;;;;;6190525;23;20036;-91
2021/07/21 14:22:23;;;;;;;13.75;8.75;;;32.50;44.00;;;;;;6190211;23;20083;-92
2021/07/21 14:25:13;;;;;;;10.73;9.30;;;32.30;44.00;;;;;;6189342;23;20135;-91
2021/07/21 14:28:28;;;;;;;12.70;8.90;;;32.50;44.50;;;;;;6184639;23;20052;-91
2021/07/21 14:31:34;;;;;;;11.32;8.30;;;33.50;42.50;;;;;;6187812;23;20031;-92
2021/07/21 14:34:31;;;;;;;12.75;8.98;;;34.10;41.60;;;;;;6187559;23;20029;-91
2021/07/21 14:37:28;;;;;;;16.00;8.68;;;34.20;41.10;;;;;;6190500;23;20035;-92
2021/07/21 14:45:17;;;;;;;12.35;9.30;;;34.80;40.50;;;;;;6192593;23;20001;-93
2021/07/21 14:48:21;;;;;;;11.65;8.57;;;34.50;40.90;;;;;;6008157;23;20034;-92
2021/07/21 14:51:25;;;;;;;12.77;8.13;;;34.90;43.50;;;;;;6201940;23;20052;-92
2021/07/21 14:54:18;;;;;;;10.13;8.43;;;34.90;39.80;;;;;;6186295;23;20021;-91
2021/07/21 14:57:20;;;;;;;13.95;8.95;;;35.00;39.70;;;;;;6194988;23;20021;-93
2021/07/21 15:00:36;;;;;;;12.02;8.38;;;34.50;40.10;;;;;;6059071;23;20174;-91
2021/07/21 15:03:26;;;;;;;11.80;8.27;;;33.90;40.10;;;;;;6070801;23;20033;-90
2021/07/21 15:06:18;;;;;;;15.73;9.30;;;32.90;41.70;;;;;;6079107;23;20031;-92
2021/07/21 15:09:23;;;;;;;14.38;8.65;;;32.30;42.60;;;;;;6071650;23;20030;-92
2021/07/21 15:12:12;;;;;;;11.25;8.48;;;32.60;44.00;;;;;;6071022;23;20539;-91
2021/07/21 15:15:07;;;;;;;16.80;8.32;;;33.10;42.70;;;;;;6070024;23;20170;-92
2021/07/21 15:18:25;;;;;;;13.48;9.15;;;33.40;42.10;;;;;;6032743;23;20079;-92
2021/07/21 15:21:12;;;;;;;12.70;8.32;;;32.70;41.00;;;;;;6054110;23;20326;-91
2021/07/21 15:24:56;;;;;;;11.43;8.38;;;32.20;42.80;;;;;;6058024;23;20023;-92
2021/07/21 15:27:40;;;;;;;11.15;8.43;;;32.30;43.00;;;;;;6073685;23;20026;-91
2021/07/21 15:31:00;;;;;;;14.93;9.15;;;32.20;42.30;;;;;;5959801;24;20024;-91
2021/07/21 15:34:09;;;;;;;15.63;9.02;;;32.10;42.10;;;;;;5942297;24;20325;-92
2021/07/21 15:36:59;;;;;;;11.57;8.38;;;32.30;42.20;;;;;;6094589;23;20110;-91
2021/07/21 15:39:53;;;;;;;11.65;8.98;;;32.20;41.70;;;;;;6080788;23;20026;-91
2021/07/21 15:42:41;;;;;;;10.27;8.57;;;32.10;43.50;;;;;;6060883;23;20347;-91
2021/07/21 15:49:26;;;;;;;11.63;7.85;;;31.80;43.10;;;;;;6103974;23;20034;-92
2021/07/21 15:52:20;;;;;;;10.38;7.32;;;31.60;44.40;;;;;;6083020;23;20094;-93
2021/07/21 15:55:13;;;;;;;16.15;8.30;;;31.90;44.20;;;;;;6079999;23;20030;-92
2021/07/21 15:58:06;;;;;;;14.32;8.35;;;31.80;43.50;;;;;;6081379;23;20018;-92
2021/07/21 16:01:30;;;;;;;11.95;7.95;;;31.50;43.40;;;;;;6079481;23;20034;-93
2021/07/21 16:04:27;;;;;;;9.57;7.90;;;31.40;42.90;;;;;;6066576;23;20022;-92
2021/07/21 16:07:22;;;;;;;9.52;7.72;;;31.20;44.40;;;;;;6130912;23;20021;-93
2021/07/21 16:10:35;;;;;;;11.07;8.23;;;31.10;42.70;;;;;;6192338;23;20107;-93
2021/07/21 16:13:59;;;;;;;;;;;;;;;;;;;;;
2021/07/21 16:16:54;;;;;;;9.50;6.93;;;30.40;45.10;;;;;;6196613;23;20029;-92
2021/07/21 16:19:50;;;;;;;10.93;7.50;;;30.10;44.90;;;;;;6197401;23;20077;-91
2021/07/21 16:22:38;;;;;;;11.95;7.47;;;29.50;44.70;;;;;;6180581;23;20421;-92
2021/07/21 16:29:12;;;;;;;12.40;7.95;;;28.90;47.60;;;;;;6165472;23;20025;-92
2021/07/21 16:32:07;;;;;;;9.90;7.25;;;28.50;46.60;;;;;;6199516;23;20097;-90
2021/07/21 16:35:35;;;;;;;11.90;7.25;;;28.10;47.60;;;;;;6198126;23;20076;-91
2021/07/21 16:38:23;;;;;;;12.65;7.10;;;27.60;47.90;;;;;;6113885;23;20025;-93
2021/07/21 16:41:19;;;;;;;18.00;7.68;;;27.30;48.60;;;;;;6188598;23;20025;-90
2021/07/21 16:44:33;;;;;;;12.30;6.57;;;27.00;49.30;;;;;;6190536;23;20025;-92
2021/07/21 16:47:50;;;;;;;12.90;8.02;;;26.80;49.90;;;;;;6072114;23;20034;-93
2021/07/21 16:51:08;;;;;;;;;;;;;;;;;;;;;
2021/07/21 16:54:28;;;;;;;;;;;;;;;;;;;;;
2021/07/21 16:57:38;;;;;;;13.90;7.13;;;26.40;50.70;;;;;;5990462;24;20153;-91
2021/07/21 17:01:37;;;;;;;11.68;7.05;;;25.70;51.70;;;;;;5931950;24;20112;-91
2021/07/21 17:08:35;;;;;;;12.05;6.70;;;24.70;54.20;;;;;;5934383;24;20104;-90
2021/07/21 17:21:26;;;;;;;11.30;6.70;;;24.00;55.50;;;;;;6211032;23;20056;-90
2021/07/21 17:24:13;;;;;;;16.35;9.70;;;23.80;56.40;;;;;;6194675;23;20040;-89
2021/07/21 17:27:04;;;;;;;12.43;7.63;;;23.70;56.90;;;;;;6195648;23;20082;-91
2021/07/21 17:30:03;;;;;;;14.18;7.55;;;23.70;57.80;;;;;;6197083;23;20035;-91
2021/07/21 17:32:52;;;;;;;12.70;7.90;;;23.60;57.90;;;;;;6194523;23;20025;-91
2021/07/21 17:35:47;;;;;;;14.45;7.32;;;23.50;57.50;;;;;;6217827;23;20028;-91
2021/07/21 17:38:44;;;;;;;14.70;6.90;;;23.40;57.30;;;;;;6196311;23;20044;-93
2021/07/21 17:41:31;;;;;;;10.32;6.38;;;23.20;58.30;;;;;;6196451;23;20087;-91
2021/07/21 17:44:22;;;;;;;10.55;7.38;;;23.20;59.70;;;;;;6220344;23;20025;-90
2021/07/21 17:47:09;;;;;;;12.43;7.47;;;23.10;60.00;;;;;;6196891;23;20450;-92
2021/07/21 17:49:59;;;;;;;9.98;6.80;;;23.00;60.80;;;;;;6199604;23;20123;-92
2021/07/21 17:52:49;;;;;;;10.50;7.32;;;22.90;59.40;;;;;;6199541;23;20040;-91
2021/07/21 17:55:37;;;;;;;8.80;6.43;;;22.80;59.70;;;;;;6198618;23;20044;-90
2021/07/21 17:58:26;;;;;;;8.25;6.45;;;22.70;59.50;;;;;;6197750;23;20024;-89
2021/07/21 18:01:16;;;;;;;8.70;6.18;;;22.50;59.90;;;;;;6195180;23;20017;-89
2021/07/21 18:04:07;;;;;;;12.30;7.28;;;22.40;60.70;;;;;;6196435;23;20482;-89
2021/07/21 18:06:57;;;;;;;12.32;7.10;;;22.40;60.30;;;;;;6215990;23;20028;-90
2021/07/21 18:09:45;;;;;;;9.00;6.18;;;22.30;60.20;;;;;;6193519;23;20056;-90
2021/07/21 18:12:33;;;;;;;11.50;7.35;;;22.20;60.80;;;;;;6216778;23;20351;-92
2021/07/21 18:15:26;;;;;;;12.55;6.50;;;22.10;62.90;;;;;;6195530;23;20027;-92
2021/07/21 18:18:17;;;;;;;10.10;6.57;;;22.00;63.20;;;;;;6195946;23;20036;-90
2021/07/21 18:21:28;;;;;;;12.35;6.70;;;21.90;62.40;;;;;;6199532;23;20086;-90
2021/07/21 18:24:17;;;;;;;10.05;6.75;;;21.70;64.20;;;;;;6217642;23;20032;-91
2021/07/21 18:27:07;;;;;;;8.60;5.88;;;21.60;64.10;;;;;;6197106;23;20083;-90
2021/07/21 18:29:55;;;;;;;13.32;6.47;;;21.50;64.00;;;;;;6196738;23;20028;-90
2021/07/21 18:32:45;;;;;;;11.00;6.95;;;21.30;64.60;;;;;;6194366;23;20028;-88
2021/07/21 18:35:38;;;;;;;9.32;7.10;;;21.30;65.20;;;;;;6194703;23;20024;-90
2021/07/21 18:38:26;;;;;;;12.45;7.40;;;21.20;64.70;;;;;;6194895;23;20068;-91
2021/07/21 18:41:16;;;;;;;7.95;5.97;;;21.10;65.10;;;;;;6200944;23;20029;-90
2021/07/21 18:44:05;;;;;;;14.25;6.57;;;21.00;64.70;;;;;;6198135;23;20100;-91
2021/07/21 18:46:53;;;;;;;11.23;6.90;;;21.00;66.20;;;;;;6194932;23;20069;-91
2021/07/21 18:49:40;;;;;;;11.52;6.78;;;20.90;66.40;;;;;;6194537;23;20501;-91
2021/07/21 18:52:27;;;;;;;10.18;6.32;;;20.80;67.40;;;;;;6195525;23;20031;-89
2021/07/21 18:55:16;;;;;;;10.27;7.20;;;20.70;67.40;;;;;;6198601;23;20289;-89
2021/07/21 18:58:06;;;;;;;11.88;6.65;;;20.60;67.80;;;;;;6196879;23;20035;-92
2021/07/21 19:00:56;;;;;;;9.48;6.55;;;20.50;68.10;;;;;;6194346;23;20139;-88